Clifton Park, NY

6:23 AM EDT on July 23, 2016 (GMT -0400)
Meadow Estates (near Town Hall) | | Change Station

Elev 325 ft 42.86 °N, 73.83 °W | Updated 1 minute ago

Partly Cloudy
Partly Cloudy
73.2 °F
Feels Like 74 °F
N
1.0
Wind Variable Wind from NNW
Gusts 4.0 mph

Today
High -- | Low -- °F
--% Chance of Precip.
Yesterday
High -- | Low -- °F
Precip. -- in
Pressure 29.81 in
Visibility 10.0 miles
Clouds Few 6500 ft
Few 11000 ft
Heat Index 74 °F
Dew Point 65 °F
Humidity 76%
Rainfall 0.00 in
Snow Depth Not available.
5:37 AM 8:25 PM
Waning Gibbous, 86% visible
METAR KALB 230951Z 29010KT 10SM FEW065 FEW110 23/16 A2981 RMK AO2 SLP093 T02280161
Pressure 29.81 in
Visibility 10.0 miles
Clouds Few 6500 ft
Few 11000 ft
Heat Index 74 °F
Dew Point 65 °F
Humidity 76%
Rainfall 0.00 in
Snow Depth Not available.
5:37 AM 8:25 PM
Waning Gibbous, 86% visible
METAR KALB 230951Z 29010KT 10SM FEW065 FEW110 23/16 A2981 RMK AO2 SLP093 T02280161

10-Day Weather Forecast

Almanac

Astronomy

Jul. 23, 2016 Rise Set
Actual Time
Civil Twilight
Nautical Twilight
Astronomical Twilight
Moon
Length of Visible Light
Length of Day
Tomorrow will be .
, % of the Moon is Illuminated

Today's Extremes

State Highs State Lows

Community

WunderPhotos

Upload Photos

1,926,791 photos uploaded!

WunderBlog® & News

Nearby

Air Quality

  Air Quality AQ Index Pollutant
Not available.

Snow Depth

Station Depth Elevation

Earthquake Activity

City Distance Mag. Time & Date
Minimum magnitude displayed is 2.5.

Coastal Water Temperatures

Place Temperature

Stations

Nearby Weather Stations

Station Location Temp. Windchill Dew Point Humidity Wind Precip. Elev Updated Type
                   

Watches & Warnings

There are currently no watches in effect.